createdAt,value
2019-04-27T00:00:22.999Z,95.65
2019-04-27T00:01:23.327Z,95.84
2019-04-27T00:02:26.459Z,95.46
2019-04-27T00:03:23.452Z,95.46
2019-04-27T00:04:23.598Z,95.84
2019-04-27T00:05:26.622Z,96.03
2019-04-27T00:06:23.731Z,95.84
2019-04-27T00:07:24.117Z,95.75
2019-04-27T00:08:24.009Z,95.84
2019-04-27T00:09:23.167Z,95.84
2019-04-27T00:10:25.234Z,96.03
2019-04-27T00:11:23.247Z,95.84
2019-04-27T00:12:26.426Z,95.60
2019-04-27T00:13:23.344Z,95.70
2019-04-27T00:14:23.957Z,96.08
2019-04-27T00:15:28.179Z,96.17
2019-04-27T00:16:23.523Z,96.26
2019-04-27T00:17:41.326Z,95.60
2019-04-27T00:18:23.520Z,95.60
2019-04-27T00:19:27.290Z,95.79
2019-04-27T00:20:23.956Z,95.41
2019-04-27T00:21:23.756Z,95.98
2019-04-27T00:22:23.678Z,95.89
2019-04-27T00:23:23.728Z,96.08
2019-04-27T00:24:23.756Z,96.17
2019-04-27T00:25:23.794Z,96.17
2019-04-27T00:26:23.848Z,95.98
2019-04-27T00:27:23.873Z,95.60
2019-04-27T00:28:23.913Z,96.08
2019-04-27T00:29:25.831Z,95.98
2019-04-27T00:30:23.990Z,95.98
2019-04-27T00:31:24.033Z,96.17
2019-04-27T00:32:24.069Z,95.60
2019-04-27T00:33:24.120Z,95.79
2019-04-27T00:34:24.159Z,95.79
2019-04-27T00:35:24.187Z,95.79
2019-04-27T00:36:24.229Z,95.70
2019-04-27T00:37:24.267Z,95.79
2019-04-27T00:38:24.306Z,95.79
2019-04-27T00:39:24.352Z,95.79
2019-04-27T00:40:24.400Z,95.41
2019-04-27T00:41:24.426Z,95.60
2019-04-27T00:42:24.463Z,95.89
2019-04-27T00:43:24.503Z,95.79
2019-04-27T00:44:24.542Z,95.60
2019-04-27T00:45:24.583Z,95.51
2019-04-27T00:46:24.621Z,95.70
2019-04-27T00:47:24.660Z,96.26
2019-04-27T00:48:24.704Z,96.17
2019-04-27T00:49:24.739Z,96.03
2019-04-27T00:50:24.778Z,96.12
2019-04-27T00:51:24.818Z,96.17
2019-04-27T00:52:24.864Z,96.22
2019-04-27T00:53:24.897Z,96.03
2019-04-27T00:54:24.935Z,95.94
2019-04-27T00:55:24.982Z,96.03
2019-04-27T00:56:25.319Z,95.94
2019-04-27T00:57:25.063Z,96.31
2019-04-27T00:58:25.105Z,95.84
2019-04-27T00:59:25.133Z,95.84
2019-04-27T01:00:25.171Z,95.94
2019-04-27T01:01:25.209Z,95.94
2019-04-27T01:02:25.251Z,95.79
2019-04-27T01:03:25.298Z,96.17
2019-04-27T01:04:25.331Z,95.94
2019-04-27T01:05:25.367Z,95.75
2019-04-27T01:06:25.409Z,95.94
2019-04-27T01:07:25.447Z,95.94
2019-04-27T01:08:25.485Z,96.41
2019-04-27T01:09:25.529Z,96.31
2019-04-27T01:10:25.565Z,96.12
2019-04-27T01:11:25.604Z,96.03
2019-04-27T01:12:25.642Z,95.94
2019-04-27T01:13:25.680Z,95.94
2019-04-27T01:14:25.717Z,96.12
2019-04-27T01:15:25.764Z,96.12
2019-04-27T01:16:25.800Z,96.03
2019-04-27T01:17:25.843Z,96.03
2019-04-27T01:18:25.875Z,96.12
2019-04-27T01:19:25.923Z,96.31
2019-04-27T01:20:25.954Z,96.31
2019-04-27T01:21:26.044Z,96.03
2019-04-27T01:22:26.039Z,96.31
2019-04-27T01:23:26.076Z,96.41
2019-04-27T01:24:26.109Z,95.75
2019-04-27T01:25:26.152Z,95.56
2019-04-27T01:26:26.197Z,95.56
2019-04-27T01:27:26.230Z,95.75
2019-04-27T01:28:26.269Z,95.75
2019-04-27T01:29:26.308Z,95.84
2019-04-27T01:30:26.346Z,96.31
2019-04-27T01:31:26.385Z,96.41
2019-04-27T01:32:26.424Z,95.94
2019-04-27T01:33:26.463Z,96.12
2019-04-27T01:34:26.502Z,96.12
2019-04-27T01:35:26.542Z,96.12
2019-04-27T01:36:26.589Z,96.22
2019-04-27T01:37:28.444Z,95.94
2019-04-27T01:38:26.661Z,96.12
2019-04-27T01:39:26.698Z,96.22
2019-04-27T01:40:26.737Z,96.12
2019-04-27T01:41:26.775Z,95.84
2019-04-27T01:42:26.815Z,95.75
2019-04-27T01:43:28.459Z,96.89
2019-04-27T01:44:26.892Z,96.79
2019-04-27T01:45:28.797Z,96.89
2019-04-27T01:46:26.970Z,96.03
2019-04-27T01:47:28.848Z,96.69
2019-04-27T01:48:28.256Z,96.60
2019-04-27T01:49:27.088Z,96.60
2019-04-27T01:50:28.885Z,96.60
2019-04-27T01:51:27.171Z,96.50
2019-04-27T01:52:27.205Z,96.60
2019-04-27T01:53:28.621Z,96.65
2019-04-27T01:54:28.980Z,96.79
2019-04-27T01:55:27.332Z,96.89
2019-04-27T01:56:29.252Z,96.69
2019-04-27T01:57:27.406Z,96.55
2019-04-27T01:58:29.202Z,96.45
2019-04-27T01:59:28.265Z,96.45
2019-04-27T02:00:27.518Z,96.65
2019-04-27T02:01:28.716Z,96.65
2019-04-27T02:02:29.225Z,96.55
2019-04-27T02:03:28.645Z,96.65
2019-04-27T02:04:29.364Z,96.84
2019-04-27T02:05:29.026Z,96.74
2019-04-27T02:06:29.434Z,96.74
2019-04-27T02:07:27.791Z,96.74
2019-04-27T02:08:28.650Z,96.65
2019-04-27T02:09:28.854Z,95.70
2019-04-27T02:10:29.293Z,96.08
2019-04-27T02:11:28.777Z,96.22
2019-04-27T02:12:29.137Z,96.26
2019-04-27T02:13:29.039Z,96.17
2019-04-27T02:14:28.777Z,96.22
2019-04-27T02:15:29.322Z,96.41
2019-04-27T02:16:28.969Z,96.12
2019-04-27T02:17:28.833Z,96.31
2019-04-27T02:18:35.575Z,96.31
2019-04-27T02:19:29.203Z,95.75
2019-04-27T02:20:29.957Z,95.84
2019-04-27T02:21:29.419Z,96.22
2019-04-27T02:22:29.735Z,96.60
2019-04-27T02:23:29.374Z,96.69
2019-04-27T02:24:28.934Z,96.79
2019-04-27T02:25:29.473Z,96.60
2019-04-27T02:26:29.891Z,96.69
2019-04-27T02:27:28.724Z,96.69
2019-04-27T02:28:29.489Z,96.79
2019-04-27T02:29:29.129Z,96.98
2019-04-27T02:30:30.630Z,96.60
2019-04-27T02:31:29.530Z,96.60
2019-04-27T02:32:29.188Z,96.60
2019-04-27T02:33:30.175Z,96.89
2019-04-27T02:34:30.215Z,96.98
2019-04-27T02:35:30.036Z,96.98
2019-04-27T02:36:30.548Z,96.89
2019-04-27T02:37:30.453Z,96.79
2019-04-27T02:38:30.516Z,96.79
2019-04-27T02:39:29.834Z,96.84
2019-04-27T02:40:30.522Z,96.84
2019-04-27T02:41:29.783Z,96.69
2019-04-27T02:42:29.796Z,96.84
2019-04-27T02:43:29.764Z,96.84
2019-04-27T02:44:30.186Z,96.55
2019-04-27T02:45:30.317Z,96.46
2019-04-27T02:46:31.409Z,96.55
2019-04-27T02:47:29.598Z,96.46
2019-04-27T02:48:29.936Z,96.65
2019-04-27T02:49:30.474Z,96.65
2019-04-27T02:50:29.465Z,96.74
2019-04-27T02:51:30.054Z,96.74
2019-04-27T02:52:30.194Z,96.65
2019-04-27T02:53:29.633Z,96.74
2019-04-27T02:54:29.985Z,96.84
2019-04-27T02:55:29.659Z,96.84
2019-04-27T02:56:30.565Z,97.22
2019-04-27T02:57:30.387Z,97.03
2019-04-27T02:58:31.691Z,97.22
2019-04-27T02:59:30.465Z,96.84
2019-04-27T03:00:31.974Z,97.22
2019-04-27T03:01:30.643Z,96.84
2019-04-27T03:02:30.318Z,97.03
2019-04-27T03:03:30.157Z,96.74
2019-04-27T03:04:30.411Z,96.74
2019-04-27T03:05:30.069Z,96.65
2019-04-27T03:06:30.361Z,96.46
2019-04-27T03:07:30.454Z,96.65
2019-04-27T03:08:30.176Z,96.74
2019-04-27T03:09:30.609Z,96.74
2019-04-27T03:10:30.246Z,96.84
2019-04-27T03:11:30.772Z,96.74
2019-04-27T03:12:30.323Z,96.74
2019-04-27T03:13:30.533Z,96.65
2019-04-27T03:14:36.042Z,96.65
2019-04-27T03:15:30.668Z,96.84
2019-04-27T03:16:30.486Z,96.65
2019-04-27T03:17:31.252Z,96.65
2019-04-27T03:18:32.773Z,96.84
2019-04-27T03:19:30.599Z,96.65
2019-04-27T03:20:30.645Z,96.94
2019-04-27T03:21:30.676Z,96.94
2019-04-27T03:22:30.736Z,96.94
2019-04-27T03:23:30.755Z,96.74
2019-04-27T03:24:30.794Z,96.74
2019-04-27T03:25:32.517Z,96.94
2019-04-27T03:26:31.137Z,96.94
2019-04-27T03:27:30.911Z,96.84
2019-04-27T03:28:30.957Z,96.84
2019-04-27T03:29:30.999Z,96.84
2019-04-27T03:30:35.472Z,96.84
2019-04-27T03:31:32.907Z,96.94
2019-04-27T03:32:31.908Z,96.94
2019-04-27T03:33:32.379Z,96.94
2019-04-27T03:34:32.437Z,97.08
2019-04-27T03:35:36.139Z,96.70
2019-04-27T03:36:31.921Z,96.98
2019-04-27T03:37:31.305Z,96.79
2019-04-27T03:38:31.346Z,96.89
2019-04-27T03:39:32.810Z,96.79
2019-04-27T03:40:31.431Z,96.79
2019-04-27T03:41:31.469Z,96.89
2019-04-27T03:42:31.501Z,96.89
2019-04-27T03:43:31.541Z,96.89
2019-04-27T03:44:32.095Z,96.12
2019-04-27T03:45:31.626Z,96.12
2019-04-27T03:46:31.659Z,96.03
2019-04-27T03:47:31.700Z,96.41
2019-04-27T03:48:31.737Z,96.89
2019-04-27T03:49:37.921Z,97.08
2019-04-27T03:50:31.822Z,96.89
2019-04-27T03:51:31.858Z,96.79
2019-04-27T03:52:31.895Z,96.98
2019-04-27T03:53:31.934Z,96.70
2019-04-27T03:54:31.972Z,96.79
2019-04-27T03:55:32.027Z,96.89
2019-04-27T03:56:32.052Z,96.12
2019-04-27T03:57:32.102Z,96.70
2019-04-27T03:58:32.130Z,96.70
2019-04-27T03:59:32.589Z,96.79
2019-04-27T04:00:32.211Z,96.79
2019-04-27T04:01:32.252Z,96.70
2019-04-27T04:02:32.294Z,96.70
2019-04-27T04:03:32.336Z,96.79
2019-04-27T04:04:32.772Z,96.41
2019-04-27T04:05:32.410Z,96.89
2019-04-27T04:06:32.449Z,96.79
2019-04-27T04:07:32.493Z,96.70
2019-04-27T04:08:32.529Z,96.51
2019-04-27T04:09:32.574Z,96.51
2019-04-27T04:10:32.607Z,96.89
2019-04-27T04:11:32.651Z,96.79
2019-04-27T04:12:32.688Z,96.60
2019-04-27T04:13:32.785Z,96.70
2019-04-27T04:14:36.600Z,96.79
2019-04-27T04:15:32.804Z,96.22
2019-04-27T04:16:32.851Z,96.12
2019-04-27T04:17:32.883Z,95.84
2019-04-27T04:18:32.929Z,96.79
2019-04-27T04:19:47.713Z,96.31
2019-04-27T04:20:33.010Z,96.22
2019-04-27T04:21:33.044Z,96.22
2019-04-27T04:22:33.082Z,96.22
2019-04-27T04:23:33.127Z,95.65
2019-04-27T04:24:33.158Z,96.03
2019-04-27T04:25:33.376Z,95.56
2019-04-27T04:26:33.310Z,96.41
2019-04-27T04:27:33.276Z,96.22
2019-04-27T04:28:33.317Z,96.22
2019-04-27T04:29:33.357Z,96.31
2019-04-27T04:30:33.396Z,96.22
2019-04-27T04:31:33.594Z,96.51
2019-04-27T04:32:33.484Z,96.89
2019-04-27T04:33:33.515Z,96.51
2019-04-27T04:34:33.562Z,96.70
2019-04-27T04:35:33.628Z,96.51
2019-04-27T04:36:33.650Z,96.79
2019-04-27T04:37:33.675Z,96.22
2019-04-27T04:38:33.713Z,96.12
2019-04-27T04:39:33.757Z,96.70
2019-04-27T04:40:33.795Z,97.08
2019-04-27T04:41:33.837Z,96.41
2019-04-27T04:42:33.872Z,96.51
2019-04-27T04:43:33.934Z,96.79
2019-04-27T04:44:33.953Z,96.79
2019-04-27T04:45:33.998Z,96.22
2019-04-27T04:46:34.031Z,96.03
2019-04-27T04:47:34.070Z,96.51
2019-04-27T04:48:34.109Z,96.60
2019-04-27T04:49:34.150Z,96.79
2019-04-27T04:50:34.189Z,96.41
2019-04-27T04:51:34.228Z,96.89
2019-04-27T04:52:34.267Z,96.41
2019-04-27T04:53:34.317Z,96.98
2019-04-27T04:54:34.348Z,96.98
2019-04-27T04:55:34.392Z,96.79
2019-04-27T04:56:34.428Z,96.75
2019-04-27T04:57:34.467Z,96.75
2019-04-27T04:58:34.515Z,96.65
2019-04-27T04:59:34.551Z,96.94
2019-04-27T05:00:34.590Z,96.75
2019-04-27T05:01:34.629Z,96.55
2019-04-27T05:02:34.665Z,96.65
2019-04-27T05:03:34.704Z,97.41
2019-04-27T05:04:34.746Z,96.84
2019-04-27T05:05:34.785Z,96.65
2019-04-27T05:06:34.824Z,97.41
2019-04-27T05:07:34.872Z,96.84
2019-04-27T05:08:34.904Z,96.65
2019-04-27T05:09:34.943Z,96.65
2019-04-27T05:10:35.035Z,96.75
2019-04-27T05:11:35.024Z,96.65
2019-04-27T05:12:35.063Z,96.65
2019-04-27T05:13:35.103Z,96.65
2019-04-27T05:14:35.141Z,96.84
2019-04-27T05:15:35.184Z,96.65
2019-04-27T05:16:35.222Z,96.36
2019-04-27T05:17:35.284Z,96.75
2019-04-27T05:18:35.300Z,96.65
2019-04-27T05:19:35.343Z,96.55
2019-04-27T05:20:35.382Z,97.31
2019-04-27T05:21:35.421Z,96.84
2019-04-27T05:22:35.460Z,97.31
2019-04-27T05:23:35.501Z,96.94
2019-04-27T05:24:35.539Z,96.98
2019-04-27T05:25:35.580Z,97.08
2019-04-27T05:26:35.620Z,97.17
2019-04-27T05:27:35.660Z,97.08
2019-04-27T05:28:35.700Z,96.89
2019-04-27T05:29:35.740Z,97.31
2019-04-27T05:30:35.778Z,96.55
2019-04-27T05:31:35.820Z,96.36
2019-04-27T05:32:35.859Z,97.27
2019-04-27T05:33:35.900Z,97.84
2019-04-27T05:34:35.953Z,96.41
2019-04-27T05:35:35.982Z,97.17
2019-04-27T05:36:36.020Z,97.46
2019-04-27T05:37:36.060Z,96.80
2019-04-27T05:38:39.850Z,96.60
2019-04-27T05:39:36.181Z,97.75
2019-04-27T05:40:36.180Z,97.75
2019-04-27T05:41:37.630Z,97.46
2019-04-27T05:42:36.262Z,97.56
2019-04-27T05:43:36.302Z,97.36
2019-04-27T05:44:41.360Z,97.46
2019-04-27T05:45:36.382Z,97.36
2019-04-27T05:46:36.810Z,97.56
2019-04-27T05:47:36.462Z,97.75
2019-04-27T05:48:36.500Z,97.84
2019-04-27T05:49:41.097Z,97.56
2019-04-27T05:50:43.099Z,97.46
2019-04-27T05:51:38.134Z,96.70
2019-04-27T05:52:36.661Z,97.32
2019-04-27T05:53:36.705Z,97.75
2019-04-27T05:54:38.187Z,97.89
2019-04-27T05:55:36.782Z,98.18
2019-04-27T05:56:38.831Z,98.56
2019-04-27T05:57:38.941Z,97.89
2019-04-27T05:58:36.906Z,98.36
2019-04-27T05:59:36.948Z,98.08
2019-04-27T06:00:36.994Z,98.65
2019-04-27T06:01:38.826Z,98.65
2019-04-27T06:02:37.065Z,98.36
2019-04-27T06:03:37.107Z,98.46
2019-04-27T06:04:37.154Z,98.27
2019-04-27T06:05:39.034Z,98.22
2019-04-27T06:06:37.227Z,98.56
2019-04-27T06:07:37.271Z,97.80
2019-04-27T06:08:39.132Z,98.27
2019-04-27T06:09:39.056Z,97.22
2019-04-27T06:10:38.671Z,98.65
2019-04-27T06:11:37.432Z,97.70
2019-04-27T06:12:37.471Z,98.18
2019-04-27T06:13:39.073Z,99.13
2019-04-27T06:14:39.247Z,98.65
2019-04-27T06:15:38.965Z,98.08
2019-04-27T06:16:39.319Z,98.36
2019-04-27T06:17:38.733Z,98.18
2019-04-27T06:18:39.204Z,98.85
2019-04-27T06:19:39.066Z,98.94
2019-04-27T06:20:50.326Z,98.18
2019-04-27T06:21:37.837Z,98.36
2019-04-27T06:22:39.040Z,98.46
2019-04-27T06:23:39.023Z,98.56
2019-04-27T06:24:39.573Z,98.32
2019-04-27T06:25:39.333Z,98.56
2019-04-27T06:26:40.002Z,97.99
2019-04-27T06:27:39.668Z,98.61
2019-04-27T06:28:39.738Z,99.27
2019-04-27T06:29:39.169Z,99.13
2019-04-27T06:30:39.197Z,98.85
2019-04-27T06:31:39.648Z,98.36
2019-04-27T06:32:39.570Z,97.99
2019-04-27T06:33:39.106Z,98.56
2019-04-27T06:34:39.091Z,98.51
2019-04-27T06:35:39.906Z,98.70
2019-04-27T06:36:38.829Z,98.61
2019-04-27T06:37:38.949Z,98.70
2019-04-27T06:38:39.336Z,98.61
2019-04-27T06:39:38.754Z,98.90
2019-04-27T06:40:39.140Z,99.08
2019-04-27T06:41:40.050Z,98.13
2019-04-27T06:42:39.863Z,98.80
2019-04-27T06:43:40.419Z,99.18
2019-04-27T06:44:39.490Z,98.51
2019-04-27T06:45:38.931Z,98.51
2019-04-27T06:46:40.292Z,98.03
2019-04-27T06:47:39.706Z,98.70
2019-04-27T06:48:39.501Z,98.75
2019-04-27T06:49:39.597Z,98.51
2019-04-27T06:50:39.086Z,98.42
2019-04-27T06:51:40.024Z,98.42
2019-04-27T06:52:39.154Z,98.61
2019-04-27T06:53:39.546Z,98.61
2019-04-27T06:54:39.183Z,98.37
2019-04-27T06:55:39.302Z,98.32
2019-04-27T06:56:39.266Z,98.42
2019-04-27T06:57:41.215Z,98.27
2019-04-27T06:58:40.774Z,98.85
2019-04-27T06:59:40.004Z,98.56
2019-04-27T07:00:39.601Z,98.18
2019-04-27T07:01:39.471Z,98.08
2019-04-27T07:02:39.513Z,98.18
2019-04-27T07:03:39.685Z,98.61
2019-04-27T07:04:39.594Z,98.42
2019-04-27T07:05:39.636Z,98.52
2019-04-27T07:06:52.778Z,98.90
2019-04-27T07:07:39.724Z,99.08
2019-04-27T07:08:40.171Z,98.80
2019-04-27T07:09:39.803Z,99.28
2019-04-27T07:10:39.848Z,99.28
2019-04-27T07:11:39.894Z,98.52
2019-04-27T07:12:41.101Z,98.71
2019-04-27T07:13:39.969Z,98.52
2019-04-27T07:14:52.002Z,98.32
2019-04-27T07:15:40.050Z,98.94
2019-04-27T07:16:40.091Z,98.32
2019-04-27T07:17:40.187Z,98.18
2019-04-27T07:18:40.173Z,98.28
2019-04-27T07:19:40.224Z,98.75
2019-04-27T07:20:40.256Z,99.19
2019-04-27T07:21:40.302Z,99.19
2019-04-27T07:22:40.339Z,98.90
2019-04-27T07:23:40.381Z,98.71
2019-04-27T07:24:40.615Z,98.80
2019-04-27T07:25:40.467Z,98.99
2019-04-27T07:26:40.508Z,99.43
2019-04-27T07:27:40.551Z,99.52
2019-04-27T07:28:41.036Z,99.43
2019-04-27T07:29:44.636Z,98.66
2019-04-27T07:30:40.690Z,99.57
2019-04-27T07:31:40.733Z,99.99
2019-04-27T07:32:40.761Z,99.10
2019-04-27T07:33:40.808Z,99.86
2019-04-27T07:34:40.852Z,99.10
2019-04-27T07:35:40.889Z,99.57
2019-04-27T07:36:40.940Z,99.29
2019-04-27T07:37:40.972Z,98.81
2019-04-27T07:38:41.013Z,99.76
2019-04-27T07:39:41.056Z,99.00
2019-04-27T07:40:42.058Z,99.19
2019-04-27T07:41:41.144Z,98.90
2019-04-27T07:42:41.416Z,99.29
2019-04-27T07:43:41.231Z,99.29
2019-04-27T07:44:41.275Z,98.61
2019-04-27T07:45:41.316Z,99.19
2019-04-27T07:46:41.356Z,99.10
2019-04-27T07:47:41.398Z,98.90
2019-04-27T07:48:41.443Z,99.00
2019-04-27T07:49:41.486Z,99.10
2019-04-27T07:50:41.529Z,98.61
2019-04-27T07:51:41.578Z,98.95
2019-04-27T07:52:41.616Z,99.05
2019-04-27T07:53:41.659Z,99.58
2019-04-27T07:54:41.700Z,98.91
2019-04-27T07:55:41.742Z,98.43
2019-04-27T07:56:41.786Z,98.24
2019-04-27T07:57:41.832Z,98.81
2019-04-27T07:58:41.876Z,99.10
2019-04-27T07:59:42.212Z,97.90
2019-04-27T08:00:41.957Z,98.00
2019-04-27T08:01:42.002Z,97.28
2019-04-27T08:02:42.050Z,96.89
2019-04-27T08:03:42.094Z,95.94
2019-04-27T08:04:42.135Z,96.94
2019-04-27T08:05:42.181Z,96.75
2019-04-27T08:06:42.225Z,96.08
2019-04-27T08:07:42.266Z,96.08
2019-04-27T08:08:42.321Z,96.66
2019-04-27T08:09:42.352Z,97.14
2019-04-27T08:10:42.428Z,96.66
2019-04-27T08:11:42.439Z,96.75
2019-04-27T08:12:42.483Z,96.42
2019-04-27T08:13:42.528Z,97.28
2019-04-27T08:14:42.571Z,96.03
2019-04-27T08:15:42.617Z,95.56
2019-04-27T08:16:42.665Z,95.84
2019-04-27T08:17:42.992Z,96.47
2019-04-27T08:18:42.751Z,96.37
2019-04-27T08:19:42.796Z,97.61
2019-04-27T08:20:42.842Z,97.23
2019-04-27T08:21:46.269Z,96.99
2019-04-27T08:22:42.925Z,97.90
2019-04-27T08:23:42.973Z,98.86
2019-04-27T08:24:43.014Z,97.90
2019-04-27T08:25:43.108Z,97.42
2019-04-27T08:26:43.100Z,96.75
2019-04-27T08:27:43.154Z,97.47
2019-04-27T08:28:43.191Z,97.76
2019-04-27T08:29:43.241Z,97.42
2019-04-27T08:30:43.286Z,96.75
2019-04-27T08:31:43.326Z,96.61
2019-04-27T08:32:43.375Z,95.36
2019-04-27T08:33:43.412Z,96.03
2019-04-27T08:34:43.460Z,94.64
2019-04-27T08:35:43.507Z,94.98
2019-04-27T08:36:43.544Z,94.49
2019-04-27T08:37:43.592Z,94.59
2019-04-27T08:38:43.633Z,95.07
2019-04-27T08:39:43.676Z,95.36
2019-04-27T08:40:43.720Z,94.84
2019-04-27T08:41:43.766Z,95.03
2019-04-27T08:42:43.809Z,95.12
2019-04-27T08:43:43.854Z,95.51
2019-04-27T08:44:43.898Z,95.26
2019-04-27T08:45:43.944Z,95.89
2019-04-27T08:46:43.988Z,94.93
2019-04-27T08:47:44.033Z,95.21
2019-04-27T08:48:44.077Z,96.47
2019-04-27T08:49:44.122Z,96.66
2019-04-27T08:50:44.171Z,96.18
2019-04-27T08:51:56.066Z,95.51
2019-04-27T08:52:44.262Z,94.54
2019-04-27T08:53:44.305Z,95.79
2019-04-27T08:54:44.344Z,95.46
2019-04-27T08:55:44.387Z,95.26
2019-04-27T08:56:44.434Z,95.36
2019-04-27T08:57:44.479Z,95.26
2019-04-27T08:58:44.522Z,94.98
2019-04-27T08:59:44.567Z,94.88
2019-04-27T09:00:44.612Z,94.64
2019-04-27T09:01:44.667Z,93.25
2019-04-27T09:02:47.248Z,94.07
2019-04-27T09:03:44.745Z,93.92
2019-04-27T09:04:44.793Z,94.59
2019-04-27T09:05:44.884Z,93.44
2019-04-27T09:06:44.877Z,92.24
2019-04-27T09:07:44.920Z,93.01
2019-04-27T09:08:44.981Z,93.49
2019-04-27T09:09:45.011Z,93.25
2019-04-27T09:10:45.055Z,92.77
2019-04-27T09:11:45.101Z,91.28
2019-04-27T09:12:45.146Z,91.72
2019-04-27T09:13:45.190Z,93.54
2019-04-27T09:14:45.236Z,93.25
2019-04-27T09:15:45.277Z,92.77
2019-04-27T09:16:57.950Z,91.81
2019-04-27T09:17:45.369Z,92.10
2019-04-27T09:18:45.414Z,92.10
2019-04-27T09:19:45.456Z,91.81
2019-04-27T09:20:45.515Z,93.01
2019-04-27T09:21:45.547Z,92.05
2019-04-27T09:22:45.591Z,91.23
2019-04-27T09:23:45.636Z,91.04
2019-04-27T09:24:45.684Z,90.56
2019-04-27T09:25:45.727Z,90.17
2019-04-27T09:26:45.770Z,89.79
2019-04-27T09:27:45.815Z,90.08
2019-04-27T09:28:45.862Z,89.98
2019-04-27T09:29:45.906Z,89.22
2019-04-27T09:30:45.951Z,89.98
2019-04-27T09:31:45.997Z,91.66
2019-04-27T09:32:46.041Z,90.31
2019-04-27T09:33:46.087Z,90.22
2019-04-27T09:34:46.715Z,88.87
2019-04-27T09:35:46.597Z,88.10
2019-04-27T09:36:46.222Z,88.01
2019-04-27T09:37:46.267Z,86.85
2019-04-27T09:38:46.606Z,86.47
2019-04-27T09:39:46.362Z,87.53
2019-04-27T09:40:46.622Z,87.48
2019-04-27T09:41:48.356Z,88.06
2019-04-27T09:42:46.501Z,86.13
2019-04-27T09:43:46.687Z,85.32
2019-04-27T09:44:47.593Z,85.80
2019-04-27T09:45:47.182Z,85.51
2019-04-27T09:46:47.555Z,84.74
2019-04-27T09:47:46.954Z,84.36
2019-04-27T09:48:46.771Z,84.12
2019-04-27T09:49:46.809Z,85.03
2019-04-27T09:50:46.856Z,85.32
2019-04-27T09:51:46.904Z,84.55
2019-04-27T09:52:46.946Z,85.66
2019-04-27T09:53:46.991Z,85.95
2019-04-27T09:54:48.151Z,86.52
2019-04-27T09:55:47.083Z,87.54
2019-04-27T09:56:47.129Z,87.15
2019-04-27T09:57:47.176Z,86.72
2019-04-27T09:58:47.219Z,87.30
2019-04-27T09:59:47.266Z,87.68
2019-04-27T10:00:47.309Z,88.07
2019-04-27T10:01:47.357Z,87.68
2019-04-27T10:02:47.404Z,87.78
2019-04-27T10:03:47.449Z,87.78
2019-04-27T10:04:47.496Z,87.21
2019-04-27T10:05:47.545Z,87.59
2019-04-27T10:06:48.807Z,87.49
2019-04-27T10:07:47.793Z,87.40
2019-04-27T10:08:47.667Z,87.98
2019-04-27T10:09:47.711Z,87.78
2019-04-27T10:10:47.972Z,88.17
2019-04-27T10:11:47.803Z,87.01
2019-04-27T10:12:47.854Z,87.49
2019-04-27T10:13:47.898Z,87.68
2019-04-27T10:14:47.971Z,87.88
2019-04-27T10:15:47.981Z,87.88
2019-04-27T10:16:48.028Z,86.97
2019-04-27T10:17:48.084Z,86.49
2019-04-27T10:18:48.115Z,87.07
2019-04-27T10:19:48.161Z,87.74
2019-04-27T10:20:59.148Z,88.02
2019-04-27T10:21:48.253Z,87.74
2019-04-27T10:22:48.319Z,88.12
2019-04-27T10:23:48.339Z,88.60
2019-04-27T10:24:48.385Z,88.89
2019-04-27T10:25:48.430Z,88.98
2019-04-27T10:26:48.474Z,88.98
2019-04-27T10:27:48.522Z,89.18
2019-04-27T10:28:48.568Z,88.41
2019-04-27T10:29:48.607Z,88.79
2019-04-27T10:30:48.653Z,89.08
2019-04-27T10:31:48.712Z,89.08
2019-04-27T10:32:48.741Z,88.98
2019-04-27T10:33:48.784Z,89.08
2019-04-27T10:34:48.834Z,88.79
2019-04-27T10:35:48.874Z,89.56
2019-04-27T10:36:48.929Z,89.56
2019-04-27T10:37:48.964Z,90.04
2019-04-27T10:38:49.030Z,89.08
2019-04-27T10:39:49.053Z,89.47
2019-04-27T10:40:49.095Z,88.84
2019-04-27T10:41:49.142Z,88.84
2019-04-27T10:42:49.185Z,89.32
2019-04-27T10:43:49.234Z,90.09
2019-04-27T10:44:49.276Z,89.90
2019-04-27T10:45:49.324Z,89.90
2019-04-27T10:46:49.363Z,90.28
2019-04-27T10:47:49.725Z,90.57
2019-04-27T10:48:49.451Z,91.29
2019-04-27T10:49:49.498Z,91.19
2019-04-27T10:50:49.540Z,91.00
2019-04-27T10:51:49.587Z,91.00
2019-04-27T10:52:53.715Z,91.39
2019-04-27T10:53:49.673Z,91.77
2019-04-27T10:54:49.717Z,92.15
2019-04-27T10:55:49.760Z,92.25
2019-04-27T10:56:49.804Z,92.44
2019-04-27T10:57:49.855Z,92.87
2019-04-27T10:58:49.892Z,93.59
2019-04-27T10:59:49.936Z,92.15
2019-04-27T11:00:49.979Z,91.63
2019-04-27T11:01:50.024Z,91.58
2019-04-27T11:02:50.071Z,91.86
2019-04-27T11:03:50.124Z,92.35
2019-04-27T11:04:50.158Z,92.06
2019-04-27T11:05:50.201Z,91.39
2019-04-27T11:06:50.244Z,91.67
2019-04-27T11:07:50.307Z,90.81
2019-04-27T11:08:50.334Z,91.00
2019-04-27T11:09:50.375Z,91.39
2019-04-27T11:10:50.419Z,91.77
2019-04-27T11:11:50.463Z,91.58
2019-04-27T11:12:50.508Z,91.29
2019-04-27T11:13:50.557Z,91.15
2019-04-27T11:14:50.596Z,91.15
2019-04-27T11:15:50.637Z,91.63
2019-04-27T11:16:50.692Z,92.49
2019-04-27T11:17:50.726Z,92.49
2019-04-27T11:18:50.771Z,92.78
2019-04-27T11:19:50.824Z,92.01
2019-04-27T11:20:50.857Z,92.49
2019-04-27T11:21:50.907Z,92.11
2019-04-27T11:22:50.965Z,92.49
2019-04-27T11:23:50.996Z,92.01
2019-04-27T11:24:51.034Z,92.30
2019-04-27T11:25:51.077Z,92.87
2019-04-27T11:26:51.128Z,93.35
2019-04-27T11:27:51.163Z,93.26
2019-04-27T11:28:51.207Z,94.02
2019-04-27T11:29:51.261Z,94.02
2019-04-27T11:30:51.295Z,94.31
2019-04-27T11:31:51.340Z,94.74
2019-04-27T11:32:54.364Z,94.93
2019-04-27T11:33:51.427Z,95.03
2019-04-27T11:34:51.477Z,95.07
2019-04-27T11:35:51.520Z,95.84
2019-04-27T11:36:51.586Z,95.65
2019-04-27T11:37:51.607Z,96.22
2019-04-27T11:38:51.646Z,96.22
2019-04-27T11:39:51.690Z,95.75
2019-04-27T11:40:51.748Z,97.09
2019-04-27T11:41:51.780Z,96.13
2019-04-27T11:42:51.820Z,96.13
2019-04-27T11:43:51.865Z,96.03
2019-04-27T11:44:51.911Z,95.56
2019-04-27T11:45:51.963Z,95.75
2019-04-27T11:46:51.998Z,95.21
2019-04-27T11:47:52.048Z,95.31
2019-04-27T11:48:52.087Z,94.93
2019-04-27T11:49:52.138Z,95.41
2019-04-27T11:50:52.175Z,94.26
2019-04-27T11:51:52.222Z,95.21
2019-04-27T11:52:52.266Z,95.12
2019-04-27T11:53:52.307Z,94.69
2019-04-27T11:54:52.352Z,94.40
2019-04-27T11:55:52.422Z,94.69
2019-04-27T11:56:52.444Z,94.59
2019-04-27T11:57:52.489Z,94.59
2019-04-27T11:58:52.529Z,94.31
2019-04-27T11:59:52.576Z,94.69
2019-04-27T12:00:52.623Z,94.98
2019-04-27T12:01:52.665Z,94.59
2019-04-27T12:02:52.706Z,94.79
2019-04-27T12:03:52.754Z,94.69
2019-04-27T12:04:52.813Z,94.69
2019-04-27T12:05:52.846Z,94.17
2019-04-27T12:06:52.889Z,95.03
2019-04-27T12:07:52.931Z,94.74
2019-04-27T12:08:52.979Z,94.93
2019-04-27T12:09:53.021Z,94.64
2019-04-27T12:10:53.066Z,95.03
2019-04-27T12:11:53.114Z,94.40
2019-04-27T12:12:53.162Z,94.35
2019-04-27T12:13:53.201Z,93.78
2019-04-27T12:14:53.247Z,94.54
2019-04-27T12:15:53.296Z,94.59
2019-04-27T12:16:53.340Z,94.64
2019-04-27T12:17:53.381Z,95.03
2019-04-27T12:18:53.435Z,94.64
2019-04-27T12:19:53.477Z,95.12
2019-04-27T12:20:53.516Z,95.51
2019-04-27T12:21:53.558Z,94.64
2019-04-27T12:22:53.611Z,94.84
2019-04-27T12:23:53.650Z,95.21
2019-04-27T12:24:53.709Z,95.21
2019-04-27T12:25:53.739Z,94.93
2019-04-27T12:26:55.791Z,95.31
2019-04-27T12:27:53.828Z,95.03
2019-04-27T12:28:53.872Z,95.98
2019-04-27T12:29:55.730Z,95.03
2019-04-27T12:30:53.961Z,94.93
2019-04-27T12:31:54.017Z,94.79
2019-04-27T12:32:55.734Z,94.98
2019-04-27T12:33:55.912Z,95.26
2019-04-27T12:34:54.142Z,95.31
2019-04-27T12:35:54.195Z,96.66
2019-04-27T12:36:54.237Z,96.37
2019-04-27T12:37:55.837Z,95.98
2019-04-27T12:38:54.324Z,96.18
2019-04-27T12:39:55.463Z,95.51
2019-04-27T12:40:54.416Z,96.56
2019-04-27T12:41:56.028Z,96.08
2019-04-27T12:42:54.495Z,96.75
2019-04-27T12:43:56.075Z,96.08
2019-04-27T12:44:54.589Z,95.79
2019-04-27T12:45:55.906Z,95.98
2019-04-27T12:46:57.532Z,95.41
2019-04-27T12:47:56.414Z,95.98
2019-04-27T12:48:57.078Z,96.27
2019-04-27T12:49:57.495Z,95.98
2019-04-27T12:50:56.313Z,96.22
2019-04-27T12:51:55.819Z,95.65
2019-04-27T12:52:54.939Z,95.07